Home   Weather   Spain   Madrid   Past weeks
Flag for Spain

Past Weather in Madrid, Spain — July 2020

Currently: 52 °F. Passing clouds. (Weather station: Madrid / Cuatro Vientos, Spain). See more current weather

July 2020 Weather in Madrid — Graph

°F

High & Low Weather Summary for July 2020

 TemperatureHumidityPressure
High104 °F (Jul 26, 4:00 pm)78% (Jul 22, 6:00 am)30.24 "Hg (Jul 22, 6:00 am)
Low64 °F (Jul 3, 5:30 am)6% (Jul 18, 7:00 pm)29.89 "Hg (Jul 1, 12:00 am)
Average85 °F31%30.05 "Hg
* Reported Jul 1 12:00 am — Jul 31 11:30 pm, Madrid. Weather by CustomWeather, © 2022

Note: Actual official high and low records may vary slightly from our data, if they occured in-between our weather recording intervals... More about our weather records

Madrid Weather History for July 1, 2020

Scroll right to see more
 ConditionsComfort  
Time TempWeatherWind HumidityBarometerVisibility
12:00 am
Wed, Jul 1
81 °FClear.5 mph34%29.89 "Hg10 mi
12:30 am79 °FClear.6 mph39%29.92 "Hg10 mi
1:00 am77 °FClear.6 mph42%29.92 "Hg10 mi
1:30 am79 °FClear.8 mph37%29.92 "Hg6 mi
2:00 am77 °FClear.8 mph39%29.92 "Hg10 mi
2:30 am77 °FClear.6 mph39%29.92 "Hg10 mi
3:00 am77 °FClear.7 mph39%29.92 "Hg10 mi
3:30 am77 °FClear.12 mph42%29.92 "Hg10 mi
4:00 am75 °FClear.8 mph41%29.92 "Hg10 mi
4:30 am73 °FClear.8 mph47%29.92 "Hg10 mi
5:00 am72 °FClear.7 mph47%29.92 "Hg10 mi
5:30 am70 °FClear.5 mph50%29.92 "Hg10 mi
6:00 am68 °FClear.5 mph53%29.92 "Hg10 mi
6:30 am70 °FClear.1 mph50%29.92 "Hg10 mi
7:00 am66 °FSunny.6 mph56%29.92 "Hg10 mi
7:30 am68 °FSunny.6 mph53%29.95 "Hg10 mi
8:00 am73 °FSunny.7 mph47%29.95 "Hg10 mi
8:30 am77 °FSunny.7 mph42%29.95 "Hg10 mi
9:00 am79 °FSunny.8 mph39%29.98 "Hg10 mi
9:30 am82 °FPassing clouds.9 mph32%29.98 "HgN/A
10:00 am82 °FSunny.13 mph30%29.98 "Hg10 mi
10:30 am86 °FPassing clouds.14 mph25%29.98 "HgN/A
11:00 am86 °FPassing clouds.17 mph24%29.98 "HgN/A
11:30 am88 °FPassing clouds.16 mph21%29.98 "HgN/A
12:00 pm88 °FPassing clouds.14 mph24%29.98 "HgN/A
12:30 pm90 °FPassing clouds.13 mph24%29.98 "HgN/A
1:00 pm90 °FPassing clouds.14 mph24%29.98 "HgN/A
1:30 pm90 °FPassing clouds.15 mph22%29.98 "HgN/A
2:00 pm91 °FPassing clouds.15 mph21%29.98 "HgN/A
2:30 pm91 °FPassing clouds.16 mph21%29.98 "HgN/A
3:00 pm93 °FPassing clouds.15 mph21%29.95 "HgN/A
3:30 pm95 °FPassing clouds.13 mph20%29.95 "HgN/A
4:00 pm93 °FPassing clouds.13 mph21%29.95 "HgN/A
4:30 pm95 °FPassing clouds.13 mph23%29.95 "HgN/A
5:00 pm95 °FPassing clouds.13 mph22%29.95 "HgN/A
5:30 pm93 °FPassing clouds.9 mph23%29.95 "HgN/A
6:00 pm91 °FPassing clouds.8 mph24%29.95 "HgN/A
6:30 pm91 °FPassing clouds.9 mph26%29.92 "HgN/A
7:00 pm93 °FPassing clouds.12 mph23%29.92 "HgN/A
7:30 pm91 °FSunny.10 mph23%29.92 "Hg10 mi
8:00 pm93 °FPassing clouds.12 mph21%29.92 "HgN/A
9:00 pm90 °FSunny.15 mph24%29.95 "Hg10 mi
9:30 pm88 °FSunny.15 mph22%29.95 "Hg10 mi
10:30 pm84 °FClear.12 mph27%29.98 "Hg10 mi
11:30 pm81 °FClear.8 mph30%29.98 "Hg10 mi
Weather by CustomWeather, © 2022

See weather overview